sensor_id;sensor_type;location;lat;lon;timestamp;P1;durP1;ratioP1;P2;durP2;ratioP2
22531;SDS011;11432;46.924;7.114;2024-02-14T00:00:01;5.10;;;1.98;;
22531;SDS011;11432;46.924;7.114;2024-02-14T00:02:27;4.93;;;2.25;;
22531;SDS011;11432;46.924;7.114;2024-02-14T00:04:53;5.50;;;2.10;;
22531;SDS011;11432;46.924;7.114;2024-02-14T00:07:19;5.57;;;2.17;;
22531;SDS011;11432;46.924;7.114;2024-02-14T00:09:45;3.78;;;1.98;;
22531;SDS011;11432;46.924;7.114;2024-02-14T00:12:11;4.15;;;2.30;;
22531;SDS011;11432;46.924;7.114;2024-02-14T00:14:37;4.95;;;2.67;;
22531;SDS011;11432;46.924;7.114;2024-02-14T00:17:03;6.38;;;2.45;;
22531;SDS011;11432;46.924;7.114;2024-02-14T00:19:30;4.88;;;2.58;;
22531;SDS011;11432;46.924;7.114;2024-02-14T00:21:56;5.75;;;2.50;;
22531;SDS011;11432;46.924;7.114;2024-02-14T00:24:22;6.63;;;2.25;;
22531;SDS011;11432;46.924;7.114;2024-02-14T00:26:48;3.22;;;1.85;;
22531;SDS011;11432;46.924;7.114;2024-02-14T00:29:15;7.85;;;2.00;;
22531;SDS011;11432;46.924;7.114;2024-02-14T00:31:40;5.10;;;2.20;;
22531;SDS011;11432;46.924;7.114;2024-02-14T00:34:09;3.08;;;2.17;;
22531;SDS011;11432;46.924;7.114;2024-02-14T00:36:34;3.63;;;1.90;;
22531;SDS011;11432;46.924;7.114;2024-02-14T00:39:00;3.72;;;2.17;;
22531;SDS011;11432;46.924;7.114;2024-02-14T00:41:25;4.10;;;2.08;;
22531;SDS011;11432;46.924;7.114;2024-02-14T00:43:54;4.07;;;1.87;;
22531;SDS011;11432;46.924;7.114;2024-02-14T00:46:20;5.70;;;2.60;;
22531;SDS011;11432;46.924;7.114;2024-02-14T00:48:46;6.57;;;2.17;;
22531;SDS011;11432;46.924;7.114;2024-02-14T00:51:12;3.08;;;1.80;;
22531;SDS011;11432;46.924;7.114;2024-02-14T00:53:38;6.40;;;2.30;;
22531;SDS011;11432;46.924;7.114;2024-02-14T00:56:03;4.65;;;2.30;;
22531;SDS011;11432;46.924;7.114;2024-02-14T00:58:29;5.75;;;2.28;;
22531;SDS011;11432;46.924;7.114;2024-02-14T01:00:55;3.58;;;2.22;;
22531;SDS011;11432;46.924;7.114;2024-02-14T01:03:20;6.70;;;2.20;;
22531;SDS011;11432;46.924;7.114;2024-02-14T01:05:47;3.63;;;1.92;;
22531;SDS011;11432;46.924;7.114;2024-02-14T01:08:13;3.78;;;1.92;;
22531;SDS011;11432;46.924;7.114;2024-02-14T01:10:39;4.18;;;1.90;;
22531;SDS011;11432;46.924;7.114;2024-02-14T01:13:05;6.35;;;2.28;;
22531;SDS011;11432;46.924;7.114;2024-02-14T01:15:31;4.40;;;2.00;;
22531;SDS011;11432;46.924;7.114;2024-02-14T01:17:58;3.40;;;1.75;;
22531;SDS011;11432;46.924;7.114;2024-02-14T01:20:23;5.35;;;2.00;;
22531;SDS011;11432;46.924;7.114;2024-02-14T01:22:49;4.35;;;2.25;;
22531;SDS011;11432;46.924;7.114;2024-02-14T01:25:14;5.00;;;2.20;;
22531;SDS011;11432;46.924;7.114;2024-02-14T01:27:40;3.75;;;1.95;;
22531;SDS011;11432;46.924;7.114;2024-02-14T01:30:07;3.60;;;2.08;;
22531;SDS011;11432;46.924;7.114;2024-02-14T01:32:34;3.83;;;2.03;;
22531;SDS011;11432;46.924;7.114;2024-02-14T01:35:00;4.10;;;1.85;;
22531;SDS011;11432;46.924;7.114;2024-02-14T01:37:25;3.35;;;1.65;;
22531;SDS011;11432;46.924;7.114;2024-02-14T01:39:51;3.25;;;1.70;;
22531;SDS011;11432;46.924;7.114;2024-02-14T01:42:17;4.15;;;2.00;;
22531;SDS011;11432;46.924;7.114;2024-02-14T01:44:43;5.55;;;2.05;;
22531;SDS011;11432;46.924;7.114;2024-02-14T01:47:09;5.32;;;1.88;;
22531;SDS011;11432;46.924;7.114;2024-02-14T01:49:35;3.55;;;1.90;;
22531;SDS011;11432;46.924;7.114;2024-02-14T01:52:02;3.92;;;1.65;;
22531;SDS011;11432;46.924;7.114;2024-02-14T01:54:31;3.45;;;1.80;;
22531;SDS011;11432;46.924;7.114;2024-02-14T01:56:58;3.92;;;1.95;;
22531;SDS011;11432;46.924;7.114;2024-02-14T01:59:25;4.13;;;1.80;;
22531;SDS011;11432;46.924;7.114;2024-02-14T02:01:51;4.47;;;1.70;;
22531;SDS011;11432;46.924;7.114;2024-02-14T02:04:17;6.45;;;2.25;;
22531;SDS011;11432;46.924;7.114;2024-02-14T02:06:43;4.80;;;1.75;;
22531;SDS011;11432;46.924;7.114;2024-02-14T02:09:09;3.97;;;1.90;;
22531;SDS011;11432;46.924;7.114;2024-02-14T02:11:51;2.97;;;1.75;;
22531;SDS011;11432;46.924;7.114;2024-02-14T02:14:21;2.20;;;1.52;;
22531;SDS011;11432;46.924;7.114;2024-02-14T02:16:47;5.35;;;1.58;;
22531;SDS011;11432;46.924;7.114;2024-02-14T02:19:13;3.00;;;1.55;;
22531;SDS011;11432;46.924;7.114;2024-02-14T02:21:41;4.63;;;2.05;;
22531;SDS011;11432;46.924;7.114;2024-02-14T02:24:11;3.17;;;1.88;;
22531;SDS011;11432;46.924;7.114;2024-02-14T02:26:37;5.80;;;1.80;;
22531;SDS011;11432;46.924;7.114;2024-02-14T02:29:02;4.97;;;1.58;;
22531;SDS011;11432;46.924;7.114;2024-02-14T02:31:30;4.13;;;1.83;;
22531;SDS011;11432;46.924;7.114;2024-02-14T02:33:56;4.05;;;1.60;;
22531;SDS011;11432;46.924;7.114;2024-02-14T02:36:22;6.20;;;1.90;;
22531;SDS011;11432;46.924;7.114;2024-02-14T02:38:49;5.07;;;1.63;;
22531;SDS011;11432;46.924;7.114;2024-02-14T02:41:15;4.00;;;1.65;;
22531;SDS011;11432;46.924;7.114;2024-02-14T02:43:40;4.70;;;2.10;;
22531;SDS011;11432;46.924;7.114;2024-02-14T02:46:08;3.17;;;1.50;;
22531;SDS011;11432;46.924;7.114;2024-02-14T02:48:34;3.88;;;1.73;;
22531;SDS011;11432;46.924;7.114;2024-02-14T02:51:01;4.50;;;2.10;;
22531;SDS011;11432;46.924;7.114;2024-02-14T02:53:26;6.47;;;2.03;;
22531;SDS011;11432;46.924;7.114;2024-02-14T02:55:52;5.70;;;1.67;;
22531;SDS011;11432;46.924;7.114;2024-02-14T02:58:19;4.20;;;1.55;;
22531;SDS011;11432;46.924;7.114;2024-02-14T03:00:46;5.47;;;1.65;;
22531;SDS011;11432;46.924;7.114;2024-02-14T03:03:14;3.13;;;1.33;;
22531;SDS011;11432;46.924;7.114;2024-02-14T03:05:41;3.08;;;1.30;;
22531;SDS011;11432;46.924;7.114;2024-02-14T03:08:09;4.20;;;1.60;;
22531;SDS011;11432;46.924;7.114;2024-02-14T03:10:40;4.97;;;1.70;;
22531;SDS011;11432;46.924;7.114;2024-02-14T03:13:06;3.65;;;1.92;;
22531;SDS011;11432;46.924;7.114;2024-02-14T03:15:36;3.13;;;1.60;;
22531;SDS011;11432;46.924;7.114;2024-02-14T03:18:02;4.20;;;1.77;;
22531;SDS011;11432;46.924;7.114;2024-02-14T03:20:32;3.40;;;1.80;;
22531;SDS011;11432;46.924;7.114;2024-02-14T03:22:58;2.75;;;1.52;;
22531;SDS011;11432;46.924;7.114;2024-02-14T03:25:24;3.75;;;1.42;;
22531;SDS011;11432;46.924;7.114;2024-02-14T03:27:50;3.95;;;1.60;;
22531;SDS011;11432;46.924;7.114;2024-02-14T03:30:18;4.35;;;1.60;;
22531;SDS011;11432;46.924;7.114;2024-02-14T03:32:45;4.70;;;2.10;;
22531;SDS011;11432;46.924;7.114;2024-02-14T03:35:11;3.50;;;1.55;;
22531;SDS011;11432;46.924;7.114;2024-02-14T03:37:38;5.20;;;2.03;;
22531;SDS011;11432;46.924;7.114;2024-02-14T03:40:05;2.65;;;1.70;;
22531;SDS011;11432;46.924;7.114;2024-02-14T03:42:32;3.78;;;1.80;;
22531;SDS011;11432;46.924;7.114;2024-02-14T03:44:59;5.80;;;1.52;;
22531;SDS011;11432;46.924;7.114;2024-02-14T03:47:30;4.85;;;1.45;;
22531;SDS011;11432;46.924;7.114;2024-02-14T03:49:57;2.28;;;1.40;;
22531;SDS011;11432;46.924;7.114;2024-02-14T03:52:23;5.10;;;1.50;;
22531;SDS011;11432;46.924;7.114;2024-02-14T03:54:49;2.95;;;1.45;;
22531;SDS011;11432;46.924;7.114;2024-02-14T03:57:15;3.63;;;1.30;;
22531;SDS011;11432;46.924;7.114;2024-02-14T03:59:42;4.38;;;1.40;;
22531;SDS011;11432;46.924;7.114;2024-02-14T04:02:09;8.65;;;1.77;;
22531;SDS011;11432;46.924;7.114;2024-02-14T04:04:38;3.72;;;1.70;;
22531;SDS011;11432;46.924;7.114;2024-02-14T04:07:06;2.67;;;1.60;;
22531;SDS011;11432;46.924;7.114;2024-02-14T04:09:33;2.72;;;1.50;;
22531;SDS011;11432;46.924;7.114;2024-02-14T04:11:59;4.55;;;1.80;;
22531;SDS011;11432;46.924;7.114;2024-02-14T04:14:25;4.10;;;1.60;;
22531;SDS011;11432;46.924;7.114;2024-02-14T04:16:51;4.97;;;1.85;;
22531;SDS011;11432;46.924;7.114;2024-02-14T04:19:16;3.50;;;1.40;;
22531;SDS011;11432;46.924;7.114;2024-02-14T04:21:42;5.65;;;1.77;;
22531;SDS011;11432;46.924;7.114;2024-02-14T04:24:08;3.13;;;1.60;;
22531;SDS011;11432;46.924;7.114;2024-02-14T04:26:34;4.53;;;1.50;;
22531;SDS011;11432;46.924;7.114;2024-02-14T04:29:00;5.13;;;1.85;;
22531;SDS011;11432;46.924;7.114;2024-02-14T04:31:26;5.38;;;1.50;;
22531;SDS011;11432;46.924;7.114;2024-02-14T04:33:52;5.55;;;1.92;;
22531;SDS011;11432;46.924;7.114;2024-02-14T04:36:19;4.78;;;1.73;;
22531;SDS011;11432;46.924;7.114;2024-02-14T04:38:46;4.15;;;1.60;;
22531;SDS011;11432;46.924;7.114;2024-02-14T04:41:13;4.22;;;1.80;;
22531;SDS011;11432;46.924;7.114;2024-02-14T04:43:39;4.15;;;1.65;;
22531;SDS011;11432;46.924;7.114;2024-02-14T04:46:05;2.17;;;1.40;;
22531;SDS011;11432;46.924;7.114;2024-02-14T04:48:35;5.95;;;1.73;;
22531;SDS011;11432;46.924;7.114;2024-02-14T04:51:02;4.47;;;1.63;;
22531;SDS011;11432;46.924;7.114;2024-02-14T04:53:29;3.85;;;1.30;;
22531;SDS011;11432;46.924;7.114;2024-02-14T04:55:55;3.53;;;1.83;;
22531;SDS011;11432;46.924;7.114;2024-02-14T04:58:20;3.80;;;1.60;;
22531;SDS011;11432;46.924;7.114;2024-02-14T05:00:46;3.63;;;1.88;;
22531;SDS011;11432;46.924;7.114;2024-02-14T05:03:11;3.25;;;1.60;;
22531;SDS011;11432;46.924;7.114;2024-02-14T05:05:37;4.75;;;1.90;;
22531;SDS011;11432;46.924;7.114;2024-02-14T05:08:03;6.53;;;2.10;;
22531;SDS011;11432;46.924;7.114;2024-02-14T05:10:30;5.55;;;2.00;;
22531;SDS011;11432;46.924;7.114;2024-02-14T05:12:56;4.93;;;2.30;;
22531;SDS011;11432;46.924;7.114;2024-02-14T05:15:22;6.95;;;2.22;;
22531;SDS011;11432;46.924;7.114;2024-02-14T05:17:48;5.80;;;2.20;;
22531;SDS011;11432;46.924;7.114;2024-02-14T05:20:15;6.45;;;2.38;;
22531;SDS011;11432;46.924;7.114;2024-02-14T05:22:41;4.00;;;1.77;;
22531;SDS011;11432;46.924;7.114;2024-02-14T05:25:07;6.03;;;2.35;;
22531;SDS011;11432;46.924;7.114;2024-02-14T05:27:34;5.43;;;2.00;;
22531;SDS011;11432;46.924;7.114;2024-02-14T05:30:03;3.95;;;1.80;;
22531;SDS011;11432;46.924;7.114;2024-02-14T05:32:34;5.38;;;1.75;;
22531;SDS011;11432;46.924;7.114;2024-02-14T05:35:00;3.28;;;1.40;;
22531;SDS011;11432;46.924;7.114;2024-02-14T05:37:26;2.70;;;1.30;;
22531;SDS011;11432;46.924;7.114;2024-02-14T05:39:52;2.90;;;1.20;;
22531;SDS011;11432;46.924;7.114;2024-02-14T05:42:19;2.60;;;1.40;;
22531;SDS011;11432;46.924;7.114;2024-02-14T05:44:44;4.88;;;1.50;;
22531;SDS011;11432;46.924;7.114;2024-02-14T05:47:10;1.98;;;1.13;;
22531;SDS011;11432;46.924;7.114;2024-02-14T05:49:38;3.15;;;1.23;;
22531;SDS011;11432;46.924;7.114;2024-02-14T05:52:07;2.20;;;1.23;;
22531;SDS011;11432;46.924;7.114;2024-02-14T05:54:32;3.58;;;1.20;;
22531;SDS011;11432;46.924;7.114;2024-02-14T05:56:58;3.22;;;1.10;;
22531;SDS011;11432;46.924;7.114;2024-02-14T05:59:24;5.18;;;1.40;;
22531;SDS011;11432;46.924;7.114;2024-02-14T06:01:50;2.70;;;1.20;;
22531;SDS011;11432;46.924;7.114;2024-02-14T06:04:15;4.00;;;1.15;;
22531;SDS011;11432;46.924;7.114;2024-02-14T06:06:41;2.70;;;1.10;;
22531;SDS011;11432;46.924;7.114;2024-02-14T06:09:06;2.78;;;1.25;;
22531;SDS011;11432;46.924;7.114;2024-02-14T06:11:36;3.20;;;1.40;;
22531;SDS011;11432;46.924;7.114;2024-02-14T06:14:04;3.97;;;1.65;;
22531;SDS011;11432;46.924;7.114;2024-02-14T06:16:33;4.40;;;1.27;;
22531;SDS011;11432;46.924;7.114;2024-02-14T06:19:00;5.30;;;1.63;;
22531;SDS011;11432;46.924;7.114;2024-02-14T06:21:26;5.75;;;1.52;;
22531;SDS011;11432;46.924;7.114;2024-02-14T06:23:52;2.60;;;1.25;;
22531;SDS011;11432;46.924;7.114;2024-02-14T06:26:18;4.28;;;1.60;;
22531;SDS011;11432;46.924;7.114;2024-02-14T06:28:44;4.28;;;1.50;;
22531;SDS011;11432;46.924;7.114;2024-02-14T06:31:10;2.83;;;1.40;;
22531;SDS011;11432;46.924;7.114;2024-02-14T06:33:36;5.07;;;1.63;;
22531;SDS011;11432;46.924;7.114;2024-02-14T06:36:02;3.97;;;1.50;;
22531;SDS011;11432;46.924;7.114;2024-02-14T06:38:28;3.15;;;1.30;;
22531;SDS011;11432;46.924;7.114;2024-02-14T06:40:53;3.67;;;1.27;;
22531;SDS011;11432;46.924;7.114;2024-02-14T06:43:19;1.83;;;1.15;;
22531;SDS011;11432;46.924;7.114;2024-02-14T06:45:45;4.63;;;1.73;;
22531;SDS011;11432;46.924;7.114;2024-02-14T06:48:11;7.88;;;2.10;;
22531;SDS011;11432;46.924;7.114;2024-02-14T06:50:36;6.57;;;2.53;;
22531;SDS011;11432;46.924;7.114;2024-02-14T06:53:02;7.65;;;3.30;;
22531;SDS011;11432;46.924;7.114;2024-02-14T06:55:28;4.88;;;2.10;;
22531;SDS011;11432;46.924;7.114;2024-02-14T06:57:57;4.28;;;2.30;;
22531;SDS011;11432;46.924;7.114;2024-02-14T07:00:24;3.47;;;2.00;;
22531;SDS011;11432;46.924;7.114;2024-02-14T07:02:50;5.25;;;2.17;;
22531;SDS011;11432;46.924;7.114;2024-02-14T07:05:15;3.42;;;2.00;;
22531;SDS011;11432;46.924;7.114;2024-02-14T07:07:41;4.00;;;1.92;;
22531;SDS011;11432;46.924;7.114;2024-02-14T07:10:07;3.53;;;1.85;;
22531;SDS011;11432;46.924;7.114;2024-02-14T07:12:33;5.43;;;1.73;;
22531;SDS011;11432;46.924;7.114;2024-02-14T07:15:01;4.00;;;1.67;;
22531;SDS011;11432;46.924;7.114;2024-02-14T07:17:26;5.22;;;2.10;;
22531;SDS011;11432;46.924;7.114;2024-02-14T07:19:52;3.58;;;2.00;;
22531;SDS011;11432;46.924;7.114;2024-02-14T07:22:18;6.45;;;2.00;;
22531;SDS011;11432;46.924;7.114;2024-02-14T07:24:46;12.55;;;3.10;;
22531;SDS011;11432;46.924;7.114;2024-02-14T07:27:12;7.95;;;2.90;;
22531;SDS011;11432;46.924;7.114;2024-02-14T07:29:38;5.45;;;2.00;;
22531;SDS011;11432;46.924;7.114;2024-02-14T07:32:04;4.55;;;1.60;;
22531;SDS011;11432;46.924;7.114;2024-02-14T07:34:31;5.13;;;2.17;;
22531;SDS011;11432;46.924;7.114;2024-02-14T07:36:57;3.67;;;1.80;;
22531;SDS011;11432;46.924;7.114;2024-02-14T07:39:22;3.97;;;1.70;;
22531;SDS011;11432;46.924;7.114;2024-02-14T07:41:48;2.53;;;1.55;;
22531;SDS011;11432;46.924;7.114;2024-02-14T07:44:14;3.80;;;1.60;;
22531;SDS011;11432;46.924;7.114;2024-02-14T07:47:16;4.07;;;2.00;;
22531;SDS011;11432;46.924;7.114;2024-02-14T07:49:42;7.80;;;1.65;;
22531;SDS011;11432;46.924;7.114;2024-02-14T07:52:08;6.10;;;1.85;;
22531;SDS011;11432;46.924;7.114;2024-02-14T07:54:33;4.53;;;2.00;;
22531;SDS011;11432;46.924;7.114;2024-02-14T07:56:59;6.25;;;1.63;;
22531;SDS011;11432;46.924;7.114;2024-02-14T07:59:24;3.20;;;1.63;;
22531;SDS011;11432;46.924;7.114;2024-02-14T08:01:50;2.25;;;1.38;;
22531;SDS011;11432;46.924;7.114;2024-02-14T08:04:15;6.28;;;1.55;;
22531;SDS011;11432;46.924;7.114;2024-02-14T08:06:41;7.07;;;1.88;;
22531;SDS011;11432;46.924;7.114;2024-02-14T08:09:10;5.68;;;1.92;;
22531;SDS011;11432;46.924;7.114;2024-02-14T08:11:35;3.17;;;1.90;;
22531;SDS011;11432;46.924;7.114;2024-02-14T08:14:01;4.93;;;1.70;;
22531;SDS011;11432;46.924;7.114;2024-02-14T08:16:28;4.32;;;1.83;;
22531;SDS011;11432;46.924;7.114;2024-02-14T08:18:53;6.50;;;2.20;;
22531;SDS011;11432;46.924;7.114;2024-02-14T08:21:24;5.55;;;2.30;;
22531;SDS011;11432;46.924;7.114;2024-02-14T08:23:53;3.97;;;1.90;;
22531;SDS011;11432;46.924;7.114;2024-02-14T08:26:20;5.18;;;2.33;;
22531;SDS011;11432;46.924;7.114;2024-02-14T08:28:47;4.90;;;2.00;;
22531;SDS011;11432;46.924;7.114;2024-02-14T08:31:13;5.03;;;1.98;;
22531;SDS011;11432;46.924;7.114;2024-02-14T08:33:39;4.03;;;1.80;;
22531;SDS011;11432;46.924;7.114;2024-02-14T08:36:05;3.45;;;1.88;;
22531;SDS011;11432;46.924;7.114;2024-02-14T08:38:31;4.53;;;2.08;;
22531;SDS011;11432;46.924;7.114;2024-02-14T08:40:58;6.93;;;2.10;;
22531;SDS011;11432;46.924;7.114;2024-02-14T08:43:23;6.47;;;2.20;;
22531;SDS011;11432;46.924;7.114;2024-02-14T08:45:53;4.80;;;2.42;;
22531;SDS011;11432;46.924;7.114;2024-02-14T08:48:19;6.10;;;2.65;;
22531;SDS011;11432;46.924;7.114;2024-02-14T08:50:45;4.90;;;2.30;;
22531;SDS011;11432;46.924;7.114;2024-02-14T08:53:11;5.57;;;2.22;;
22531;SDS011;11432;46.924;7.114;2024-02-14T08:55:39;4.35;;;2.30;;
22531;SDS011;11432;46.924;7.114;2024-02-14T08:58:05;4.50;;;2.20;;
22531;SDS011;11432;46.924;7.114;2024-02-14T09:00:31;5.10;;;2.15;;
22531;SDS011;11432;46.924;7.114;2024-02-14T09:02:56;5.47;;;2.30;;
22531;SDS011;11432;46.924;7.114;2024-02-14T09:05:25;8.98;;;2.65;;
22531;SDS011;11432;46.924;7.114;2024-02-14T09:07:50;3.88;;;2.13;;
22531;SDS011;11432;46.924;7.114;2024-02-14T09:10:16;4.55;;;2.00;;
22531;SDS011;11432;46.924;7.114;2024-02-14T09:12:42;3.92;;;2.30;;
22531;SDS011;11432;46.924;7.114;2024-02-14T09:15:08;7.28;;;2.10;;
22531;SDS011;11432;46.924;7.114;2024-02-14T09:17:34;8.45;;;2.35;;
22531;SDS011;11432;46.924;7.114;2024-02-14T09:20:01;4.85;;;2.30;;
22531;SDS011;11432;46.924;7.114;2024-02-14T09:22:26;2.88;;;1.63;;
22531;SDS011;11432;46.924;7.114;2024-02-14T09:24:53;3.40;;;1.98;;
22531;SDS011;11432;46.924;7.114;2024-02-14T09:27:19;3.10;;;1.65;;
22531;SDS011;11432;46.924;7.114;2024-02-14T09:29:44;5.18;;;2.20;;
22531;SDS011;11432;46.924;7.114;2024-02-14T09:32:10;3.63;;;2.00;;
22531;SDS011;11432;46.924;7.114;2024-02-14T09:34:36;5.50;;;2.28;;
22531;SDS011;11432;46.924;7.114;2024-02-14T09:37:02;4.60;;;2.33;;
22531;SDS011;11432;46.924;7.114;2024-02-14T09:39:31;4.90;;;2.08;;
22531;SDS011;11432;46.924;7.114;2024-02-14T09:41:58;3.90;;;1.98;;
22531;SDS011;11432;46.924;7.114;2024-02-14T09:44:30;3.83;;;1.63;;
22531;SDS011;11432;46.924;7.114;2024-02-14T09:46:57;5.57;;;2.08;;
22531;SDS011;11432;46.924;7.114;2024-02-14T09:49:24;4.45;;;1.73;;
22531;SDS011;11432;46.924;7.114;2024-02-14T09:51:50;4.60;;;2.10;;
22531;SDS011;11432;46.924;7.114;2024-02-14T09:54:17;4.80;;;1.92;;
22531;SDS011;11432;46.924;7.114;2024-02-14T09:56:47;4.53;;;2.10;;
22531;SDS011;11432;46.924;7.114;2024-02-14T09:59:18;4.63;;;2.30;;
22531;SDS011;11432;46.924;7.114;2024-02-14T10:01:45;4.60;;;2.22;;
22531;SDS011;11432;46.924;7.114;2024-02-14T10:04:13;3.58;;;1.98;;
22531;SDS011;11432;46.924;7.114;2024-02-14T10:06:38;3.33;;;1.70;;
22531;SDS011;11432;46.924;7.114;2024-02-14T10:09:04;4.20;;;1.95;;
22531;SDS011;11432;46.924;7.114;2024-02-14T10:11:33;5.95;;;2.30;;
22531;SDS011;11432;46.924;7.114;2024-02-14T10:14:00;5.85;;;2.20;;
22531;SDS011;11432;46.924;7.114;2024-02-14T10:16:28;9.15;;;2.42;;
22531;SDS011;11432;46.924;7.114;2024-02-14T10:18:54;2.95;;;1.98;;
22531;SDS011;11432;46.924;7.114;2024-02-14T10:21:21;6.45;;;2.33;;
22531;SDS011;11432;46.924;7.114;2024-02-14T10:23:47;3.90;;;2.28;;
22531;SDS011;11432;46.924;7.114;2024-02-14T10:26:17;4.97;;;2.20;;
22531;SDS011;11432;46.924;7.114;2024-02-14T10:28:43;6.63;;;2.08;;
22531;SDS011;11432;46.924;7.114;2024-02-14T10:31:10;7.95;;;2.38;;
22531;SDS011;11432;46.924;7.114;2024-02-14T10:33:36;5.57;;;2.20;;
22531;SDS011;11432;46.924;7.114;2024-02-14T10:36:02;4.45;;;1.80;;
22531;SDS011;11432;46.924;7.114;2024-02-14T10:38:31;4.88;;;2.10;;
22531;SDS011;11432;46.924;7.114;2024-02-14T10:40:58;4.07;;;2.30;;
22531;SDS011;11432;46.924;7.114;2024-02-14T10:43:25;3.88;;;1.90;;
22531;SDS011;11432;46.924;7.114;2024-02-14T10:45:51;2.65;;;1.75;;
22531;SDS011;11432;46.924;7.114;2024-02-14T10:48:19;6.25;;;2.30;;
22531;SDS011;11432;46.924;7.114;2024-02-14T10:50:52;5.53;;;2.00;;
22531;SDS011;11432;46.924;7.114;2024-02-14T10:53:19;3.88;;;1.90;;
22531;SDS011;11432;46.924;7.114;2024-02-14T10:55:45;3.58;;;1.88;;
22531;SDS011;11432;46.924;7.114;2024-02-14T10:58:12;3.17;;;2.03;;
22531;SDS011;11432;46.924;7.114;2024-02-14T11:00:42;3.47;;;1.83;;
22531;SDS011;11432;46.924;7.114;2024-02-14T11:03:11;5.25;;;1.90;;
22531;SDS011;11432;46.924;7.114;2024-02-14T11:05:45;4.80;;;1.77;;
22531;SDS011;11432;46.924;7.114;2024-02-14T11:08:19;3.20;;;1.67;;
22531;SDS011;11432;46.924;7.114;2024-02-14T11:10:55;4.13;;;1.60;;
22531;SDS011;11432;46.924;7.114;2024-02-14T11:13:26;5.60;;;2.22;;
22531;SDS011;11432;46.924;7.114;2024-02-14T11:15:53;2.15;;;1.40;;
22531;SDS011;11432;46.924;7.114;2024-02-14T11:18:29;4.35;;;1.90;;
22531;SDS011;11432;46.924;7.114;2024-02-14T11:20:55;5.10;;;2.20;;
22531;SDS011;11432;46.924;7.114;2024-02-14T11:23:24;9.52;;;2.65;;
22531;SDS011;11432;46.924;7.114;2024-02-14T11:25:58;5.30;;;1.98;;
22531;SDS011;11432;46.924;7.114;2024-02-14T11:28:25;4.53;;;2.15;;
22531;SDS011;11432;46.924;7.114;2024-02-14T11:30:51;4.75;;;1.85;;
22531;SDS011;11432;46.924;7.114;2024-02-14T11:33:18;4.72;;;2.20;;
22531;SDS011;11432;46.924;7.114;2024-02-14T11:35:49;4.35;;;2.10;;
22531;SDS011;11432;46.924;7.114;2024-02-14T11:38:19;5.00;;;1.88;;
22531;SDS011;11432;46.924;7.114;2024-02-14T11:40:46;4.65;;;1.80;;
22531;SDS011;11432;46.924;7.114;2024-02-14T11:43:15;3.63;;;1.85;;
22531;SDS011;11432;46.924;7.114;2024-02-14T11:45:45;3.70;;;2.10;;
22531;SDS011;11432;46.924;7.114;2024-02-14T11:48:14;2.55;;;1.48;;
22531;SDS011;11432;46.924;7.114;2024-02-14T11:50:41;5.22;;;2.00;;
22531;SDS011;11432;46.924;7.114;2024-02-14T11:53:11;3.85;;;1.88;;
22531;SDS011;11432;46.924;7.114;2024-02-14T11:55:38;4.47;;;2.00;;
22531;SDS011;11432;46.924;7.114;2024-02-14T11:58:08;3.80;;;2.00;;
22531;SDS011;11432;46.924;7.114;2024-02-14T12:00:38;3.00;;;1.55;;
22531;SDS011;11432;46.924;7.114;2024-02-14T12:03:12;3.53;;;2.00;;
22531;SDS011;11432;46.924;7.114;2024-02-14T12:05:42;3.30;;;1.77;;
22531;SDS011;11432;46.924;7.114;2024-02-14T12:08:09;3.83;;;1.90;;
22531;SDS011;11432;46.924;7.114;2024-02-14T12:10:35;4.43;;;2.13;;
22531;SDS011;11432;46.924;7.114;2024-02-14T12:13:06;4.20;;;1.70;;
22531;SDS011;11432;46.924;7.114;2024-02-14T12:15:40;3.78;;;1.85;;
22531;SDS011;11432;46.924;7.114;2024-02-14T12:18:07;4.70;;;1.85;;
22531;SDS011;11432;46.924;7.114;2024-02-14T12:20:40;3.67;;;2.00;;
22531;SDS011;11432;46.924;7.114;2024-02-14T12:23:06;4.15;;;2.00;;
22531;SDS011;11432;46.924;7.114;2024-02-14T12:25:32;5.22;;;1.90;;
22531;SDS011;11432;46.924;7.114;2024-02-14T12:27:59;3.03;;;1.95;;
22531;SDS011;11432;46.924;7.114;2024-02-14T12:30:44;4.70;;;2.10;;
22531;SDS011;11432;46.924;7.114;2024-02-14T12:33:11;3.85;;;1.67;;
22531;SDS011;11432;46.924;7.114;2024-02-14T12:35:47;4.70;;;2.00;;
22531;SDS011;11432;46.924;7.114;2024-02-14T12:38:13;4.05;;;2.10;;
22531;SDS011;11432;46.924;7.114;2024-02-14T12:40:40;3.90;;;1.70;;
22531;SDS011;11432;46.924;7.114;2024-02-14T12:43:06;3.45;;;1.77;;
22531;SDS011;11432;46.924;7.114;2024-02-14T12:45:33;3.15;;;1.70;;
22531;SDS011;11432;46.924;7.114;2024-02-14T12:47:58;2.83;;;2.00;;
22531;SDS011;11432;46.924;7.114;2024-02-14T12:50:24;5.53;;;2.50;;
22531;SDS011;11432;46.924;7.114;2024-02-14T12:52:50;6.03;;;1.90;;
22531;SDS011;11432;46.924;7.114;2024-02-14T12:55:16;6.50;;;1.70;;
22531;SDS011;11432;46.924;7.114;2024-02-14T12:57:43;3.38;;;1.80;;
22531;SDS011;11432;46.924;7.114;2024-02-14T13:00:09;3.97;;;1.77;;
22531;SDS011;11432;46.924;7.114;2024-02-14T13:02:36;4.10;;;1.63;;
22531;SDS011;11432;46.924;7.114;2024-02-14T13:05:03;3.13;;;1.58;;
22531;SDS011;11432;46.924;7.114;2024-02-14T13:07:30;4.93;;;1.80;;
22531;SDS011;11432;46.924;7.114;2024-02-14T13:09:56;3.58;;;1.77;;
22531;SDS011;11432;46.924;7.114;2024-02-14T13:12:21;3.20;;;1.92;;
22531;SDS011;11432;46.924;7.114;2024-02-14T13:14:47;4.35;;;2.00;;
22531;SDS011;11432;46.924;7.114;2024-02-14T13:17:13;4.05;;;1.98;;
22531;SDS011;11432;46.924;7.114;2024-02-14T13:19:39;5.38;;;1.67;;
22531;SDS011;11432;46.924;7.114;2024-02-14T13:22:07;5.93;;;1.73;;
22531;SDS011;11432;46.924;7.114;2024-02-14T13:24:33;2.95;;;1.77;;
22531;SDS011;11432;46.924;7.114;2024-02-14T13:26:59;4.13;;;1.70;;
22531;SDS011;11432;46.924;7.114;2024-02-14T13:29:25;3.58;;;2.00;;
22531;SDS011;11432;46.924;7.114;2024-02-14T13:31:51;4.55;;;1.88;;
22531;SDS011;11432;46.924;7.114;2024-02-14T13:34:16;3.85;;;2.05;;
22531;SDS011;11432;46.924;7.114;2024-02-14T13:36:44;6.53;;;2.00;;
22531;SDS011;11432;46.924;7.114;2024-02-14T13:39:10;4.82;;;1.92;;
22531;SDS011;11432;46.924;7.114;2024-02-14T13:41:37;4.93;;;2.05;;
22531;SDS011;11432;46.924;7.114;2024-02-14T13:44:04;3.85;;;1.98;;
22531;SDS011;11432;46.924;7.114;2024-02-14T13:46:31;5.75;;;2.03;;
22531;SDS011;11432;46.924;7.114;2024-02-14T13:48:57;3.78;;;2.03;;
22531;SDS011;11432;46.924;7.114;2024-02-14T13:51:23;4.35;;;2.00;;
22531;SDS011;11432;46.924;7.114;2024-02-14T13:53:48;5.20;;;1.67;;
22531;SDS011;11432;46.924;7.114;2024-02-14T13:56:14;4.55;;;2.00;;
22531;SDS011;11432;46.924;7.114;2024-02-14T13:58:41;4.38;;;2.25;;
22531;SDS011;11432;46.924;7.114;2024-02-14T14:01:06;6.88;;;2.10;;
22531;SDS011;11432;46.924;7.114;2024-02-14T14:03:32;4.60;;;2.10;;
22531;SDS011;11432;46.924;7.114;2024-02-14T14:06:01;4.50;;;1.83;;
22531;SDS011;11432;46.924;7.114;2024-02-14T14:08:30;3.53;;;1.88;;
22531;SDS011;11432;46.924;7.114;2024-02-14T14:10:56;5.88;;;2.00;;
22531;SDS011;11432;46.924;7.114;2024-02-14T14:13:21;6.38;;;2.40;;
22531;SDS011;11432;46.924;7.114;2024-02-14T14:15:47;4.45;;;2.05;;
22531;SDS011;11432;46.924;7.114;2024-02-14T14:18:13;6.90;;;2.17;;
22531;SDS011;11432;46.924;7.114;2024-02-14T14:20:38;4.80;;;2.08;;
22531;SDS011;11432;46.924;7.114;2024-02-14T14:23:04;8.55;;;2.30;;
22531;SDS011;11432;46.924;7.114;2024-02-14T14:25:31;8.63;;;2.15;;
22531;SDS011;11432;46.924;7.114;2024-02-14T14:28:00;9.57;;;2.30;;
22531;SDS011;11432;46.924;7.114;2024-02-14T14:30:25;3.72;;;1.70;;
22531;SDS011;11432;46.924;7.114;2024-02-14T14:32:51;5.18;;;1.45;;
22531;SDS011;11432;46.924;7.114;2024-02-14T14:35:17;4.05;;;1.77;;
22531;SDS011;11432;46.924;7.114;2024-02-14T14:37:42;5.22;;;1.77;;
22531;SDS011;11432;46.924;7.114;2024-02-14T14:40:08;2.60;;;1.60;;
22531;SDS011;11432;46.924;7.114;2024-02-14T14:42:35;2.95;;;1.50;;
22531;SDS011;11432;46.924;7.114;2024-02-14T14:45:01;3.88;;;1.73;;